createdAt,value
2023-02-23T00:01:57.666Z,3.10
2023-02-23T00:06:59.825Z,3.20
2023-02-23T00:12:07.699Z,3.10
2023-02-23T00:17:15.086Z,3.10
2023-02-23T00:22:18.494Z,3.00
2023-02-23T00:27:21.261Z,3.00
2023-02-23T00:32:24.108Z,3.00
2023-02-23T00:37:26.424Z,2.90
2023-02-23T00:42:32.322Z,2.80
2023-02-23T00:47:37.550Z,2.70
2023-02-23T00:52:41.140Z,2.50
2023-02-23T00:57:43.357Z,2.40
2023-02-23T01:02:46.876Z,2.30
2023-02-23T01:07:49.360Z,2.20
2023-02-23T01:12:52.696Z,2.10
2023-02-23T01:17:54.867Z,2.00
2023-02-23T01:22:57.669Z,2.00
2023-02-23T01:27:59.897Z,1.90
2023-02-23T01:33:02.838Z,1.80
2023-02-23T01:38:05.015Z,1.80
2023-02-23T01:43:14.071Z,1.70
2023-02-23T01:48:18.408Z,1.60
2023-02-23T01:53:22.018Z,1.50
2023-02-23T01:58:26.667Z,1.50
2023-02-23T02:03:35.176Z,1.40
2023-02-23T02:08:44.964Z,1.40
2023-02-23T02:13:47.199Z,1.40
2023-02-23T02:19:03.334Z,1.40
2023-02-23T02:24:22.078Z,1.50
2023-02-23T02:29:56.188Z,1.60
2023-02-23T02:35:27.794Z,1.70
2023-02-23T02:40:30.835Z,1.80
2023-02-23T02:45:47.153Z,1.80
2023-02-23T02:50:58.324Z,1.80
2023-02-23T02:56:05.556Z,1.80
2023-02-23T03:01:33.619Z,1.70
2023-02-23T03:07:02.682Z,1.60
2023-02-23T03:12:42.365Z,1.50
2023-02-23T03:18:37.533Z,1.20
2023-02-23T03:24:30.692Z,1.10
2023-02-23T03:30:12.297Z,1.10
2023-02-23T03:35:35.512Z,1.00
2023-02-23T03:41:01.788Z,1.00
2023-02-23T03:46:29.237Z,1.00
2023-02-23T03:51:54.564Z,1.00
2023-02-23T03:57:18.778Z,1.10
2023-02-23T04:02:41.846Z,1.30
2023-02-23T04:08:06.023Z,1.50
2023-02-23T04:13:30.816Z,1.60
2023-02-23T04:18:35.758Z,1.70
2023-02-23T04:23:40.844Z,1.70
2023-02-23T04:28:43.033Z,1.70
2023-02-23T04:33:45.258Z,1.60
2023-02-23T04:38:47.431Z,1.70
2023-02-23T04:43:49.618Z,1.60
2023-02-23T04:48:51.769Z,1.50
2023-02-23T04:53:54.253Z,1.40
2023-02-23T04:58:56.434Z,1.50
2023-02-23T05:04:00.364Z,1.40
2023-02-23T05:09:03.343Z,1.40
2023-02-23T05:14:05.544Z,1.40
2023-02-23T05:19:08.137Z,1.30
2023-02-23T05:24:10.796Z,1.40
2023-02-23T05:29:12.960Z,1.30
2023-02-23T05:34:16.929Z,1.20
2023-02-23T05:39:19.080Z,1.20
2023-02-23T05:44:21.187Z,1.20
2023-02-23T05:49:24.078Z,1.20
2023-02-23T05:54:26.567Z,1.10
2023-02-23T05:59:29.020Z,1.20
2023-02-23T06:04:31.143Z,1.30
2023-02-23T06:09:33.246Z,1.40
2023-02-23T06:14:35.682Z,1.30
2023-02-23T06:19:37.841Z,1.30
2023-02-23T06:24:39.969Z,1.20
2023-02-23T06:29:42.257Z,1.20
2023-02-23T06:34:44.902Z,1.20
2023-02-23T06:39:47.348Z,1.10
2023-02-23T06:44:49.480Z,1.10
2023-02-23T06:49:51.593Z,1.00
2023-02-23T06:54:53.814Z,0.90
2023-02-23T06:59:58.984Z,0.80
2023-02-23T07:05:01.141Z,0.70
2023-02-23T07:10:04.885Z,0.70
2023-02-23T07:15:07.760Z,0.60
2023-02-23T07:20:10.889Z,0.60
2023-02-23T07:25:13.824Z,0.50
2023-02-23T07:30:18.258Z,0.50
2023-02-23T07:35:21.088Z,0.60
2023-02-23T07:40:23.502Z,0.60
2023-02-23T07:45:25.637Z,0.60
2023-02-23T07:50:27.785Z,0.90
2023-02-23T07:55:29.900Z,1.20
2023-02-23T08:00:33.284Z,1.30
2023-02-23T08:05:36.386Z,1.30
2023-02-23T08:10:39.410Z,1.30
2023-02-23T08:15:42.055Z,1.20
2023-02-23T08:20:44.188Z,1.30
2023-02-23T08:25:46.371Z,1.30
2023-02-23T08:30:48.708Z,1.40
2023-02-23T08:35:53.729Z,1.50
2023-02-23T08:40:55.884Z,1.60
2023-02-23T08:45:58.436Z,1.70
2023-02-23T08:51:01.158Z,1.70
2023-02-23T08:56:06.210Z,1.90
2023-02-23T09:01:17.030Z,2.00
2023-02-23T09:06:22.794Z,2.30
2023-02-23T09:11:25.079Z,2.80
2023-02-23T09:16:27.249Z,3.50
2023-02-23T09:21:30.088Z,3.80
2023-02-23T09:26:33.475Z,4.30
2023-02-23T09:31:35.725Z,4.70
2023-02-23T09:36:38.044Z,4.80
2023-02-23T09:42:08.517Z,5.00
2023-02-23T09:47:32.797Z,5.40
2023-02-23T09:52:45.096Z,5.60
2023-02-23T09:57:49.147Z,5.70
2023-02-23T10:03:12.082Z,5.90
2023-02-23T10:08:39.625Z,5.90
2023-02-23T10:13:49.872Z,6.20
2023-02-23T10:19:18.020Z,6.40
2023-02-23T10:24:30.082Z,6.90
2023-02-23T10:29:56.000Z,7.20
2023-02-23T10:34:59.767Z,7.60
2023-02-23T10:40:06.076Z,7.90
2023-02-23T10:45:28.535Z,7.90
2023-02-23T10:50:32.178Z,8.00
2023-02-23T10:55:36.995Z,8.20
2023-02-23T11:00:57.671Z,8.90
2023-02-23T11:06:00.308Z,9.00
2023-02-23T11:11:08.734Z,8.80
2023-02-23T11:16:15.180Z,8.20
2023-02-23T11:21:33.563Z,8.10
2023-02-23T11:26:57.961Z,8.50
2023-02-23T11:32:09.826Z,8.80
2023-02-23T11:37:21.266Z,9.10
2023-02-23T11:42:36.034Z,9.00
2023-02-23T11:48:32.067Z,9.00
2023-02-23T11:53:44.885Z,9.10
2023-02-23T11:58:49.922Z,8.60
2023-02-23T12:09:46.254Z,8.80
2023-02-23T12:14:57.002Z,9.30
2023-02-23T12:20:16.584Z,9.50
2023-02-23T12:25:18.692Z,9.20
2023-02-23T12:30:40.083Z,8.70
2023-02-23T12:35:42.239Z,8.30
2023-02-23T12:40:45.838Z,8.40
2023-02-23T12:46:15.796Z,8.80
2023-02-23T12:51:34.884Z,9.00
2023-02-23T12:57:08.632Z,9.00
2023-02-23T13:02:37.663Z,8.80
2023-02-23T13:08:37.315Z,8.40
2023-02-23T13:13:58.661Z,8.50
2023-02-23T13:19:28.980Z,8.90
2023-02-23T13:24:41.798Z,8.90
2023-02-23T13:29:46.710Z,8.60
2023-02-23T13:35:04.970Z,8.70
2023-02-23T13:40:50.721Z,8.90
2023-02-23T13:46:18.564Z,9.10
2023-02-23T13:51:48.386Z,9.00
2023-02-23T13:57:04.206Z,8.80
2023-02-23T14:02:27.097Z,8.70
2023-02-23T14:07:32.408Z,8.70
2023-02-23T14:12:38.407Z,8.70
2023-02-23T14:17:41.564Z,9.00
2023-02-23T14:23:26.255Z,9.30
2023-02-23T14:28:32.710Z,9.30
2023-02-23T14:33:40.160Z,9.20
2023-02-23T14:38:48.383Z,9.20
2023-02-23T14:43:59.972Z,9.10
2023-02-23T14:49:11.818Z,9.00
2023-02-23T14:54:34.099Z,9.10
2023-02-23T14:59:39.796Z,9.10
2023-02-23T15:04:42.180Z,8.60
2023-02-23T15:09:46.302Z,8.20
2023-02-23T15:14:52.599Z,8.10
2023-02-23T15:20:14.278Z,8.10
2023-02-23T15:25:24.210Z,8.10
2023-02-23T15:30:35.204Z,8.10
2023-02-23T15:35:57.418Z,8.30
2023-02-23T15:41:02.321Z,8.30
2023-02-23T15:46:06.437Z,8.40
2023-02-23T15:51:22.530Z,8.40
2023-02-23T15:56:30.398Z,8.40
2023-02-23T16:01:43.073Z,8.50
2023-02-23T16:07:15.236Z,8.50
2023-02-23T16:12:24.608Z,8.50
2023-02-23T16:17:30.092Z,8.60
2023-02-23T16:22:34.199Z,8.60
2023-02-23T16:27:38.344Z,8.60
2023-02-23T16:32:44.512Z,8.70
2023-02-23T16:38:03.608Z,8.70
2023-02-23T16:43:05.680Z,8.70
2023-02-23T16:48:15.910Z,8.60
2023-02-23T16:53:18.141Z,8.60
2023-02-23T16:58:28.087Z,8.50
2023-02-23T17:03:32.707Z,8.40
2023-02-23T17:08:43.375Z,8.40
2023-02-23T17:13:48.107Z,8.30
2023-02-23T17:18:50.161Z,8.30
2023-02-23T17:24:06.665Z,8.20
2023-02-23T17:29:09.133Z,8.20
2023-02-23T17:34:14.447Z,8.20
2023-02-23T17:39:20.053Z,8.20
2023-02-23T17:44:22.303Z,8.20
2023-02-23T17:49:27.376Z,8.10
2023-02-23T17:54:30.608Z,8.10
2023-02-23T17:59:32.730Z,8.10
2023-02-23T18:04:48.451Z,8.10
2023-02-23T18:10:21.019Z,8.10
2023-02-23T18:15:33.409Z,8.10
2023-02-23T18:20:46.471Z,8.10
2023-02-23T18:32:01.109Z,8.10
2023-02-23T18:37:12.162Z,8.10
2023-02-23T18:42:14.336Z,8.20
2023-02-23T18:47:30.090Z,8.10
2023-02-23T18:52:33.784Z,8.00
2023-02-23T18:57:44.302Z,7.90
2023-02-23T19:02:53.408Z,7.80
2023-02-23T19:08:24.498Z,7.80
2023-02-23T19:13:26.735Z,7.80
2023-02-23T19:18:58.854Z,7.80
2023-02-23T19:24:06.432Z,7.80
2023-02-23T19:34:51.658Z,7.90
2023-02-23T19:39:54.038Z,7.90
2023-02-23T19:44:58.172Z,7.90
2023-02-23T19:50:01.441Z,7.90
2023-02-23T19:55:06.997Z,7.80
2023-02-23T20:00:12.856Z,7.70
2023-02-23T20:05:16.451Z,7.70
2023-02-23T20:10:25.655Z,7.60
2023-02-23T20:15:27.996Z,7.60
2023-02-23T20:20:31.704Z,7.60
2023-02-23T20:25:36.868Z,7.70
2023-02-23T20:30:50.938Z,7.60
2023-02-23T20:35:54.229Z,7.60
2023-02-23T20:40:59.349Z,7.50
2023-02-23T20:46:50.076Z,7.60
2023-02-23T20:51:59.373Z,7.50
2023-02-23T20:57:07.714Z,7.60
2023-02-23T21:02:18.720Z,7.50
2023-02-23T21:07:28.917Z,7.50
2023-02-23T21:17:57.430Z,7.50
2023-02-23T21:23:00.482Z,7.50
2023-02-23T21:28:02.620Z,7.50
2023-02-23T21:33:06.025Z,7.60
2023-02-23T21:38:08.410Z,7.60
2023-02-23T21:43:13.130Z,7.60
2023-02-23T21:48:16.134Z,7.60
2023-02-23T21:53:23.852Z,7.60
2023-02-23T21:58:27.362Z,7.60
2023-02-23T22:08:57.592Z,7.60
2023-02-23T22:14:08.851Z,7.60
2023-02-23T22:19:11.931Z,7.60
2023-02-23T22:24:15.152Z,7.60
2023-02-23T22:29:17.619Z,7.60
2023-02-23T22:34:19.956Z,7.60
2023-02-23T22:39:42.708Z,7.60
2023-02-23T22:44:45.332Z,7.60
2023-02-23T22:49:47.870Z,7.60
2023-02-23T22:54:58.056Z,7.70
2023-02-23T23:00:19.398Z,7.70
2023-02-23T23:05:51.024Z,7.60
2023-02-23T23:10:54.007Z,7.60
2023-02-23T23:16:22.260Z,7.50
2023-02-23T23:21:39.393Z,7.50
2023-02-23T23:26:44.660Z,7.50
2023-02-23T23:31:47.154Z,7.50
2023-02-23T23:36:53.086Z,7.50
2023-02-23T23:41:56.612Z,7.50
2023-02-23T23:46:59.717Z,7.60
2023-02-23T23:52:02.192Z,7.80
2023-02-23T23:57:50.908Z,7.80
